LIPS

Istrana Airport

Istrana, Italy
TAF LIPS 260500Z 2606/2615 05005KT 9999 FEW040 SCT080 BECMG 2606/2608 08010KT 9999 SCT040 BKN070
Issued Valid From Valid To
Apr-26 @ 05:00 UTC
(59 minutes ago)
Apr-26 @ 06:00 UTC
(in a few seconds)
Apr-26 @ 15:00 UTC
(in 9 hours)
Apr-26 @ 06:00 to Apr-26 @ 15:00
TAF LIPS 260500Z 2606/2615 05005KT 9999 FEW040 SCT080
Wind Visibility Clouds
50° at 5 knots 10,000+ meters
  • Few at 4,000' AGL
  • Scattered at 8,000' AGL
Becoming Apr-26 @ 06:00 to Apr-26 @ 15:00
BECMG 2606/2608 08010KT 9999 SCT040 BKN070
Wind Visibility Clouds
80° at 10 knots 10,000+ meters
  • Scattered at 4,000' AGL
  • Broken at 7,000' AGL
TAF LIPS 260500Z 2606/2615 05005KT 9999 FEW040 SCT080 BECMG 2606/2608 08010KT 9999 SCT040 BKN070
Issued Apr-26 @ 05:00 UTC
(59 minutes ago)
Valid From Apr-26 @ 06:00 UTC
(in a few seconds)
Valid To Apr-26 @ 15:00 UTC
(in 9 hours)
Apr-26 @ 06:00 - Apr-26 @ 15:00
Wind Visibility
50° at 5 knots 10,000+ meters
Clouds
  • Few at 4,000' AGL
  • Scattered at 8,000' AGL
Becoming Apr-26 @ 06:00 - Apr-26 @ 15:00
Wind Visibility
80° at 10 knots 10,000+ meters
Clouds
  • Scattered at 4,000' AGL
  • Broken at 7,000' AGL